Buffalo, WY (82834)

5:45 AM MDT on July 27, 2016 (GMT -0600)
Buffalo | | Change Station

Elev 4708 ft 44.34 °N, 106.70 °W | Updated 4 seconds ago

Clear
Clear
62.4 °F
Feels Like 62.4 °F
N
3.4
Wind Variable Wind from SE
Gusts 4.9 mph

Today
High -- | Low -- °F
--% Chance of Precip.
Yesterday
High -- | Low -- °F
Precip. -- in
Pressure 29.99 in
Visibility 10.0 miles
Clouds Clear
Dew Point 49 °F
Humidity 61%
Rainfall 0.00 in
Snow Depth Not available.
5:49 AM 8:36 PM
Last Quarter, 44% visible
METAR KBYG 271053Z AUTO 31003KT 10SM CLR 18/09 A3017 RMK AO2 SLP154 T01780094
Pressure 29.99 in
Visibility 10.0 miles
Clouds Clear
Dew Point 49 °F
Humidity 61%
Rainfall 0.00 in
Snow Depth Not available.
5:49 AM 8:36 PM
Last Quarter, 44% visible
METAR KBYG 271053Z AUTO 31003KT 10SM CLR 18/09 A3017 RMK AO2 SLP154 T01780094

10-Day Weather Forecast

Almanac

Astronomy

Jul. 27, 2016 Rise Set
Actual Time
Civil Twilight
Nautical Twilight
Astronomical Twilight
Moon
Length of Visible Light
Length of Day
Tomorrow will be .
, % of the Moon is Illuminated

Today's Extremes

State Highs State Lows

Community

WunderPhotos

Upload Photos

1,927,828 photos uploaded!

WunderBlog® & News

Nearby

Air Quality

  Air Quality AQ Index Pollutant
Not available.

Snow Depth

Station Depth Elevation

Earthquake Activity

City Distance Mag. Time & Date
Minimum magnitude displayed is 2.5.

Coastal Water Temperatures

Place Temperature

Stations

Nearby Weather Stations

Station Location Temp. Windchill Dew Point Humidity Wind Precip. Elev Updated Type
                   

Watches & Warnings

There are currently no watches in effect.